createdAt,value
2018-07-20T00:02:17.516Z,57.30
2018-07-20T00:04:45.952Z,57.40
2018-07-20T00:07:14.462Z,57.50
2018-07-20T00:09:42.911Z,57.50
2018-07-20T00:12:11.322Z,57.60
2018-07-20T00:14:40.099Z,57.90
2018-07-20T00:17:08.533Z,58.10
2018-07-20T00:19:36.941Z,58.20
2018-07-20T00:22:05.497Z,58.50
2018-07-20T00:24:33.979Z,58.60
2018-07-20T00:27:02.413Z,58.80
2018-07-20T00:29:31.068Z,58.80
2018-07-20T00:31:59.505Z,58.90
2018-07-20T00:34:27.917Z,58.80
2018-07-20T00:36:57.458Z,59.00
2018-07-20T00:39:26.024Z,59.20
2018-07-20T00:41:54.449Z,59.30
2018-07-20T00:44:22.923Z,59.40
2018-07-20T00:46:51.456Z,59.50
2018-07-20T00:49:20.058Z,59.60
2018-07-20T00:51:48.528Z,59.80
2018-07-20T00:54:17.044Z,60.00
2018-07-20T00:56:45.506Z,60.10
2018-07-20T00:59:13.940Z,60.20
2018-07-20T01:01:42.381Z,60.70
2018-07-20T01:04:10.933Z,60.90
2018-07-20T01:06:39.398Z,60.90
2018-07-20T01:09:09.288Z,61.10
2018-07-20T01:11:37.726Z,61.20
2018-07-20T01:14:06.270Z,61.60
2018-07-20T01:16:34.693Z,62.00
2018-07-20T01:19:03.112Z,63.30
2018-07-20T01:21:31.792Z,63.10
2018-07-20T01:24:00.204Z,63.40
2018-07-20T01:26:28.641Z,63.70
2018-07-20T01:28:57.342Z,64.20
2018-07-20T01:31:26.147Z,64.30
2018-07-20T01:33:54.533Z,64.80
2018-07-20T01:36:22.932Z,65.40
2018-07-20T01:38:51.364Z,65.60
2018-07-20T01:41:19.778Z,66.00
2018-07-20T01:43:48.413Z,66.60
2018-07-20T01:46:16.908Z,66.40
2018-07-20T01:48:45.305Z,66.60
2018-07-20T01:51:13.842Z,67.00
2018-07-20T01:53:42.265Z,67.60
2018-07-20T02:01:07.286Z,69.60
2018-07-20T02:03:35.715Z,69.70
2018-07-20T02:06:04.253Z,70.30
2018-07-20T02:08:32.756Z,70.90
2018-07-20T02:11:01.712Z,72.20
2018-07-20T02:13:30.418Z,72.20
2018-07-20T02:18:27.664Z,72.70
2018-07-20T02:20:56.067Z,73.20
2018-07-20T02:23:24.745Z,74.20
2018-07-20T02:25:53.813Z,74.70
2018-07-20T02:28:22.631Z,75.50
2018-07-20T02:30:51.175Z,75.30
2018-07-20T02:33:19.715Z,76.40
2018-07-20T02:35:48.368Z,76.70
2018-07-20T02:38:17.114Z,77.30
2018-07-20T02:40:45.601Z,77.60
2018-07-20T02:43:14.171Z,77.90
2018-07-20T02:45:42.708Z,78.20
2018-07-20T02:48:11.194Z,78.20
2018-07-20T02:50:39.681Z,78.30
2018-07-20T02:53:08.141Z,78.20
2018-07-20T02:55:36.556Z,78.50
2018-07-20T02:58:05.277Z,78.80
2018-07-20T03:00:33.813Z,79.40
2018-07-20T03:03:02.245Z,79.50
2018-07-20T03:05:30.695Z,79.70
2018-07-20T03:07:59.201Z,80.00
2018-07-20T03:10:27.797Z,80.10
2018-07-20T03:12:56.320Z,80.40
2018-07-20T03:15:24.877Z,80.30
2018-07-20T03:17:53.378Z,79.20
2018-07-20T03:20:21.821Z,78.60
2018-07-20T03:22:51.425Z,78.20
2018-07-20T03:25:19.960Z,78.20
2018-07-20T03:27:48.371Z,77.70
2018-07-20T03:30:16.957Z,77.20
2018-07-20T03:32:45.610Z,77.20
2018-07-20T03:37:42.090Z,76.90
2018-07-20T03:40:10.864Z,76.90
2018-07-20T03:42:39.347Z,77.00
2018-07-20T03:45:07.803Z,76.60
2018-07-20T03:47:36.395Z,76.40
2018-07-20T03:50:05.454Z,76.50
2018-07-20T03:52:33.909Z,76.20
2018-07-20T03:55:02.429Z,76.10
2018-07-20T03:57:30.872Z,76.20
2018-07-20T03:59:59.280Z,75.90
2018-07-20T04:02:28.059Z,76.30
2018-07-20T04:04:56.498Z,75.40
2018-07-20T04:07:25.036Z,75.10
2018-07-20T04:09:53.517Z,73.50
2018-07-20T04:12:21.962Z,73.30
2018-07-20T04:14:50.464Z,72.90
2018-07-20T04:17:18.896Z,73.00
2018-07-20T04:19:47.328Z,72.50
2018-07-20T04:22:15.730Z,72.10
2018-07-20T04:24:44.677Z,70.70
2018-07-20T04:27:13.079Z,68.80
2018-07-20T04:29:41.663Z,67.30
2018-07-20T04:32:10.455Z,66.10
2018-07-20T04:34:38.919Z,65.10
2018-07-20T04:37:07.473Z,63.80
2018-07-20T04:39:36.940Z,62.40
2018-07-20T04:42:05.371Z,60.50
2018-07-20T04:44:33.767Z,59.00
2018-07-20T04:47:02.209Z,57.60
2018-07-20T04:49:30.645Z,56.90
2018-07-20T04:51:59.052Z,56.80
2018-07-20T04:54:27.544Z,57.20
2018-07-20T04:56:56.287Z,57.90
2018-07-20T04:59:25.522Z,58.50
2018-07-20T05:01:54.436Z,58.70
2018-07-20T05:04:22.844Z,59.30
2018-07-20T05:06:51.282Z,60.00
2018-07-20T05:09:19.728Z,59.80
2018-07-20T05:11:48.164Z,59.50
2018-07-20T05:14:16.604Z,58.80
2018-07-20T05:16:45.458Z,57.70
2018-07-20T05:19:13.893Z,56.50
2018-07-20T05:21:42.489Z,55.20
2018-07-20T05:24:10.994Z,53.90
2018-07-20T05:26:39.652Z,52.40
2018-07-20T05:29:08.101Z,51.30
2018-07-20T05:31:36.569Z,49.90
2018-07-20T05:34:05.080Z,48.20
2018-07-20T05:36:33.674Z,47.00
2018-07-20T05:39:02.708Z,46.10
2018-07-20T05:41:31.132Z,45.20
2018-07-20T05:43:59.608Z,44.50
2018-07-20T05:46:28.003Z,42.90
2018-07-20T05:48:56.853Z,42.00
2018-07-20T05:51:25.312Z,41.00
2018-07-20T05:53:53.733Z,40.20
2018-07-20T05:56:22.236Z,39.70
2018-07-20T05:58:50.744Z,39.10
2018-07-20T06:03:47.671Z,38.40
2018-07-20T06:06:16.200Z,38.10
2018-07-20T06:08:44.713Z,38.40
2018-07-20T06:11:13.260Z,38.80
2018-07-20T06:16:09.929Z,38.00
2018-07-20T06:18:38.476Z,37.60
2018-07-20T06:21:07.655Z,37.30
2018-07-20T06:23:36.191Z,36.90
2018-07-20T06:26:04.742Z,35.60
2018-07-20T06:28:33.170Z,35.00
2018-07-20T06:31:01.789Z,34.00
2018-07-20T06:33:30.264Z,33.50
2018-07-20T06:35:58.688Z,32.70
2018-07-20T06:38:27.101Z,32.90
2018-07-20T06:40:55.555Z,33.10
2018-07-20T06:43:23.957Z,33.00
2018-07-20T06:45:52.433Z,33.40
2018-07-20T06:48:21.049Z,32.70
2018-07-20T06:50:49.508Z,32.00
2018-07-20T06:53:17.956Z,32.10
2018-07-20T06:55:46.451Z,31.90
2018-07-20T06:58:15.079Z,31.50
2018-07-20T07:00:43.500Z,31.40
2018-07-20T07:03:12.734Z,30.80
2018-07-20T07:05:41.234Z,29.70
2018-07-20T07:08:09.710Z,29.70
2018-07-20T07:10:38.136Z,29.30
2018-07-20T07:13:06.589Z,28.60
2018-07-20T07:15:35.082Z,28.40
2018-07-20T07:18:03.620Z,28.50
2018-07-20T07:20:32.188Z,28.40
2018-07-20T07:23:00.623Z,29.00
2018-07-20T07:25:29.236Z,28.20
2018-07-20T07:27:57.840Z,28.00
2018-07-20T07:30:26.597Z,28.00
2018-07-20T07:32:55.065Z,28.00
2018-07-20T07:35:23.539Z,28.10
2018-07-20T07:37:51.996Z,28.10
2018-07-20T07:40:20.497Z,28.20
2018-07-20T07:42:48.976Z,28.30
2018-07-20T07:45:17.416Z,28.00
2018-07-20T07:47:46.027Z,28.00
2018-07-20T07:50:14.515Z,28.00
2018-07-20T07:52:42.980Z,27.70
2018-07-20T07:55:11.529Z,27.70
2018-07-20T07:57:39.944Z,27.40
2018-07-20T08:00:08.491Z,26.90
2018-07-20T08:02:36.925Z,27.00
2018-07-20T08:05:05.545Z,27.00
2018-07-20T08:07:34.019Z,26.90
2018-07-20T08:10:02.929Z,26.80
2018-07-20T08:12:31.301Z,26.60
2018-07-20T08:14:59.810Z,26.40
2018-07-20T08:17:35.292Z,26.20
2018-07-20T08:20:05.137Z,26.70
2018-07-20T08:22:33.724Z,26.50
2018-07-20T08:25:02.271Z,26.10
2018-07-20T08:27:30.874Z,26.10
2018-07-20T08:29:59.339Z,26.00
2018-07-20T08:32:27.866Z,26.20
2018-07-20T08:34:56.409Z,25.50
2018-07-20T08:37:25.241Z,25.30
2018-07-20T08:39:54.106Z,24.90
2018-07-20T08:42:23.147Z,24.30
2018-07-20T08:44:52.170Z,24.10
2018-07-20T08:47:20.892Z,24.10
2018-07-20T08:49:49.396Z,24.10
2018-07-20T08:52:17.840Z,24.10
2018-07-20T08:54:46.325Z,24.10
2018-07-20T08:57:14.870Z,23.70
2018-07-20T08:59:43.374Z,23.80
2018-07-20T09:02:11.902Z,23.10
2018-07-20T09:04:40.366Z,22.60
2018-07-20T09:07:08.853Z,21.80
2018-07-20T09:09:37.292Z,21.90
2018-07-20T09:14:34.009Z,22.20
2018-07-20T09:17:02.493Z,21.40
2018-07-20T09:19:31.010Z,21.60
2018-07-20T09:21:59.530Z,21.50
2018-07-20T09:24:28.001Z,21.50
2018-07-20T09:26:56.469Z,21.30
2018-07-20T09:29:28.585Z,21.30
2018-07-20T09:31:57.049Z,21.20
2018-07-20T09:34:25.529Z,21.00
2018-07-20T09:36:54.094Z,20.90
2018-07-20T09:39:22.590Z,20.90
2018-07-20T09:41:51.088Z,21.00
2018-07-20T09:44:19.590Z,21.20
2018-07-20T09:46:48.252Z,21.40
2018-07-20T09:49:16.756Z,21.40
2018-07-20T09:51:45.316Z,21.30
2018-07-20T09:54:13.960Z,20.80
2018-07-20T09:56:42.809Z,20.50
2018-07-20T09:59:11.225Z,20.30
2018-07-20T10:01:39.693Z,20.20
2018-07-20T10:04:08.197Z,20.10
2018-07-20T10:06:36.813Z,19.70
2018-07-20T10:09:08.960Z,19.80
2018-07-20T10:11:37.419Z,19.50
2018-07-20T10:14:06.145Z,19.40
2018-07-20T10:16:34.623Z,19.00
2018-07-20T10:19:03.317Z,18.70
2018-07-20T10:21:31.808Z,18.30
2018-07-20T10:24:00.265Z,17.80
2018-07-20T10:26:28.979Z,17.50
2018-07-20T10:28:57.897Z,17.50
2018-07-20T10:31:26.376Z,17.80
2018-07-20T10:33:54.819Z,18.00
2018-07-20T10:38:51.381Z,17.70
2018-07-20T10:41:19.771Z,18.40
2018-07-20T10:43:48.258Z,18.70
2018-07-20T10:46:17.041Z,18.80
2018-07-20T10:48:45.724Z,18.70
2018-07-20T10:51:14.353Z,19.00
2018-07-20T10:53:42.989Z,19.00
2018-07-20T10:56:11.921Z,19.60
2018-07-20T10:58:40.462Z,19.80
2018-07-20T11:01:08.908Z,19.80
2018-07-20T11:03:37.383Z,19.70
2018-07-20T11:06:06.110Z,20.00
2018-07-20T11:08:34.829Z,19.50
2018-07-20T11:11:03.692Z,19.80
2018-07-20T11:26:31.682Z,20.10
2018-07-20T11:29:00.961Z,20.50
2018-07-20T11:31:29.824Z,24.90
2018-07-20T11:33:58.785Z,25.10
2018-07-20T11:36:27.937Z,25.50
2018-07-20T11:38:56.937Z,25.60
2018-07-20T11:41:34.075Z,25.30
2018-07-20T11:44:02.760Z,26.20
2018-07-20T11:46:31.224Z,26.60
2018-07-20T11:48:59.977Z,26.70
2018-07-20T11:51:28.404Z,27.00
2018-07-20T11:53:56.860Z,27.40
2018-07-20T11:56:25.397Z,27.30
2018-07-20T11:58:54.115Z,27.90
2018-07-20T12:01:23.098Z,28.20
2018-07-20T12:03:51.960Z,28.60
2018-07-20T12:06:20.548Z,28.60
2018-07-20T12:08:49.348Z,28.40
2018-07-20T12:11:17.972Z,28.30
2018-07-20T12:13:46.564Z,28.70
2018-07-20T12:16:15.189Z,28.40
2018-07-20T12:18:44.246Z,28.80
2018-07-20T12:21:13.223Z,29.10
2018-07-20T12:23:41.957Z,29.40
2018-07-20T12:26:11.002Z,29.50
2018-07-20T12:28:39.565Z,29.60
2018-07-20T12:31:08.552Z,29.50
2018-07-20T12:33:37.479Z,29.20
2018-07-20T12:36:06.435Z,28.70
2018-07-20T12:38:35.642Z,29.00
2018-07-20T12:41:04.742Z,29.30
2018-07-20T12:43:34.079Z,28.90
2018-07-20T12:46:03.685Z,29.00
2018-07-20T12:48:32.502Z,29.00
2018-07-20T12:51:02.233Z,29.00
2018-07-20T12:53:31.437Z,28.70
2018-07-20T12:56:01.024Z,28.60
2018-07-20T12:58:30.451Z,28.70
2018-07-20T13:00:59.733Z,28.10
2018-07-20T13:03:28.661Z,28.20
2018-07-20T13:05:58.096Z,28.20
2018-07-20T13:08:27.500Z,28.20
2018-07-20T13:13:24.781Z,28.00
2018-07-20T13:15:54.092Z,27.90
2018-07-20T13:18:23.108Z,27.90
2018-07-20T13:20:51.866Z,28.20
2018-07-20T13:23:20.643Z,27.90
2018-07-20T13:28:18.589Z,27.30
2018-07-20T13:30:47.301Z,27.20
2018-07-20T13:33:16.615Z,27.30
2018-07-20T13:35:46.363Z,27.10
2018-07-20T13:38:15.467Z,26.90
2018-07-20T13:40:44.162Z,26.50
2018-07-20T13:43:13.336Z,26.50
2018-07-20T13:45:42.542Z,26.70
2018-07-20T13:48:11.496Z,27.20
2018-07-20T13:50:40.205Z,27.40
2018-07-20T13:53:09.146Z,27.40
2018-07-20T13:55:39.222Z,27.60
2018-07-20T13:58:07.913Z,27.50
2018-07-20T14:00:36.655Z,27.60
2018-07-20T14:05:33.577Z,27.30
2018-07-20T14:08:02.245Z,27.00
2018-07-20T14:10:30.920Z,27.50
2018-07-20T14:12:59.384Z,27.10
2018-07-20T14:15:28.009Z,27.00
2018-07-20T14:17:56.452Z,27.00
2018-07-20T14:20:25.707Z,26.80
2018-07-20T14:22:54.329Z,26.40
2018-07-20T14:25:22.848Z,26.50
2018-07-20T14:27:51.412Z,26.30
2018-07-20T14:30:19.843Z,26.60
2018-07-20T14:32:48.310Z,26.40
2018-07-20T14:37:44.855Z,26.10
2018-07-20T14:40:13.409Z,26.20
2018-07-20T14:42:41.876Z,26.00
2018-07-20T14:45:10.820Z,26.10
2018-07-20T14:47:39.420Z,26.50
2018-07-20T14:50:08.326Z,26.50
2018-07-20T14:52:37.041Z,26.60
2018-07-20T14:55:05.524Z,26.50
2018-07-20T14:57:34.065Z,26.30
2018-07-20T15:00:02.829Z,25.60
2018-07-20T15:02:31.281Z,26.20
2018-07-20T15:04:59.788Z,26.30
2018-07-20T15:07:28.273Z,26.60
2018-07-20T15:09:57.029Z,26.20
2018-07-20T15:12:25.654Z,26.40
2018-07-20T15:14:54.139Z,26.80
2018-07-20T15:17:22.647Z,26.50
2018-07-20T15:19:51.091Z,26.40
2018-07-20T15:22:19.579Z,26.30
2018-07-20T15:24:48.132Z,26.40
2018-07-20T15:27:16.667Z,26.00
2018-07-20T15:29:45.307Z,26.20
2018-07-20T15:32:14.073Z,26.70
2018-07-20T15:34:42.775Z,26.80
2018-07-20T15:37:11.600Z,26.90
2018-07-20T15:39:40.055Z,27.00
2018-07-20T15:42:08.542Z,27.10
2018-07-20T15:44:37.362Z,27.40
2018-07-20T15:47:06.225Z,27.50
2018-07-20T15:49:34.796Z,27.30
2018-07-20T15:54:31.817Z,27.20
2018-07-20T15:57:00.248Z,27.10
2018-07-20T15:59:28.968Z,27.10
2018-07-20T16:01:57.593Z,27.00
2018-07-20T16:04:26.259Z,27.00
2018-07-20T16:06:54.727Z,27.40
2018-07-20T16:09:23.224Z,27.60
2018-07-20T16:11:51.899Z,27.60
2018-07-20T16:14:20.777Z,27.70
2018-07-20T16:19:17.446Z,28.00
2018-07-20T16:21:45.868Z,28.10
2018-07-20T16:24:14.633Z,28.10
2018-07-20T16:26:43.134Z,28.30
2018-07-20T16:29:11.594Z,28.40
2018-07-20T16:31:40.056Z,28.30
2018-07-20T16:34:08.476Z,28.30
2018-07-20T16:36:37.041Z,28.20
2018-07-20T16:39:08.071Z,28.20
2018-07-20T16:41:37.119Z,28.30
2018-07-20T16:44:05.828Z,28.00
2018-07-20T16:46:34.407Z,28.10
2018-07-20T16:49:02.893Z,27.80
2018-07-20T16:51:31.333Z,27.60
2018-07-20T16:53:59.824Z,27.50
2018-07-20T16:56:28.287Z,27.30
2018-07-20T16:58:57.090Z,27.50
2018-07-20T17:01:25.556Z,27.30
2018-07-20T17:03:54.519Z,27.20
2018-07-20T17:06:23.133Z,27.00
2018-07-20T17:08:51.587Z,26.90
2018-07-20T17:11:20.104Z,26.60
2018-07-20T17:13:48.605Z,26.80
2018-07-20T17:16:17.059Z,26.40
2018-07-20T17:18:45.554Z,26.60
2018-07-20T17:21:15.610Z,26.60
2018-07-20T17:23:45.304Z,26.80
2018-07-20T17:26:13.786Z,26.90
2018-07-20T17:28:42.285Z,27.10
2018-07-20T17:31:10.751Z,27.00
2018-07-20T17:33:39.268Z,27.00
2018-07-20T17:36:07.780Z,27.20
2018-07-20T17:38:36.218Z,27.40
2018-07-20T17:41:04.687Z,27.70
2018-07-20T17:43:33.166Z,27.80
2018-07-20T17:46:01.664Z,27.80
2018-07-20T17:48:30.109Z,27.70
2018-07-20T17:50:58.522Z,27.90
2018-07-20T17:53:27.020Z,27.90
2018-07-20T17:55:55.517Z,27.80
2018-07-20T18:00:52.196Z,28.10
2018-07-20T18:03:20.687Z,28.00
2018-07-20T18:05:49.153Z,28.20
2018-07-20T18:08:17.756Z,28.20
2018-07-20T18:10:46.218Z,28.30
2018-07-20T18:13:14.689Z,28.50
2018-07-20T18:15:43.177Z,28.50
2018-07-20T18:18:11.709Z,28.60
2018-07-20T18:20:40.170Z,28.70
2018-07-20T18:23:08.918Z,28.80
2018-07-20T18:25:37.449Z,28.90
2018-07-20T18:28:05.882Z,29.10
2018-07-20T18:30:34.356Z,29.30
2018-07-20T18:33:02.850Z,29.40
2018-07-20T18:35:31.248Z,29.40
2018-07-20T18:37:59.776Z,29.50
2018-07-20T18:40:28.233Z,29.60
2018-07-20T18:42:56.657Z,29.70
2018-07-20T18:45:25.141Z,29.80
2018-07-20T18:47:53.585Z,30.00
2018-07-20T18:50:22.095Z,30.40
2018-07-20T18:52:50.782Z,30.70
2018-07-20T18:55:19.347Z,31.20
2018-07-20T18:57:47.836Z,32.00
2018-07-20T19:00:16.402Z,32.70
2018-07-20T19:05:13.060Z,33.80
2018-07-20T19:07:41.515Z,33.80
2018-07-20T19:10:10.061Z,33.90
2018-07-20T19:12:38.638Z,34.20
2018-07-20T19:15:07.900Z,34.30
2018-07-20T19:17:36.565Z,34.40
2018-07-20T19:20:05.510Z,34.60
2018-07-20T19:22:34.084Z,34.70
2018-07-20T19:25:02.692Z,36.00
2018-07-20T19:27:31.485Z,37.30
2018-07-20T19:30:00.083Z,38.50
2018-07-20T19:32:28.692Z,38.20
2018-07-20T19:34:57.241Z,38.50
2018-07-20T19:37:25.842Z,38.50
2018-07-20T19:42:22.482Z,38.90
2018-07-20T19:44:51.000Z,39.40
2018-07-20T19:47:19.654Z,38.70
2018-07-20T19:49:48.705Z,39.10
2018-07-20T19:52:17.333Z,38.80
2018-07-20T19:54:45.982Z,38.50
2018-07-20T19:57:14.864Z,39.00
2018-07-20T19:59:43.561Z,39.20
2018-07-20T20:02:12.287Z,39.70
2018-07-20T20:04:40.765Z,39.70
2018-07-20T20:07:09.278Z,39.60
2018-07-20T20:09:37.769Z,39.60
2018-07-20T20:12:06.410Z,40.00
2018-07-20T20:14:34.884Z,40.00
2018-07-20T20:17:03.338Z,40.10
2018-07-20T20:19:31.883Z,40.30
2018-07-20T20:22:00.497Z,40.80
2018-07-20T20:24:28.958Z,41.70
2018-07-20T20:26:57.376Z,42.30
2018-07-20T20:29:25.974Z,42.60
2018-07-20T20:31:54.365Z,42.80
2018-07-20T20:34:22.838Z,42.70
2018-07-20T20:36:51.296Z,42.60
2018-07-20T20:39:19.871Z,42.70
2018-07-20T20:41:48.387Z,42.90
2018-07-20T20:44:16.996Z,43.00
2018-07-20T20:46:45.537Z,42.90
2018-07-20T20:49:14.508Z,42.90
2018-07-20T20:51:42.995Z,42.90
2018-07-20T20:54:11.452Z,42.80
2018-07-20T20:56:39.979Z,42.30
2018-07-20T20:59:08.741Z,42.20
2018-07-20T21:01:37.274Z,42.20
2018-07-20T21:04:05.780Z,42.20
2018-07-20T21:09:02.634Z,42.40
2018-07-20T21:11:31.081Z,42.50
2018-07-20T21:13:59.617Z,42.60
2018-07-20T21:16:28.120Z,42.50
2018-07-20T21:18:56.686Z,42.80
2018-07-20T21:21:25.316Z,42.70
2018-07-20T21:23:53.840Z,42.80
2018-07-20T21:26:22.638Z,42.90
2018-07-20T21:28:51.517Z,42.90
2018-07-20T21:31:20.018Z,43.40
2018-07-20T21:33:48.714Z,43.60
2018-07-20T21:36:17.282Z,43.80
2018-07-20T21:38:45.831Z,44.20
2018-07-20T21:41:14.426Z,43.60
2018-07-20T21:43:42.985Z,43.50
2018-07-20T21:46:11.444Z,43.60
2018-07-20T21:48:39.940Z,43.70
2018-07-20T21:51:08.680Z,43.70
2018-07-20T21:53:37.272Z,43.90
2018-07-20T21:56:05.828Z,44.10
2018-07-20T21:58:34.355Z,44.10
2018-07-20T22:01:03.084Z,44.10
2018-07-20T22:03:31.532Z,44.30
2018-07-20T22:06:00.020Z,44.80
2018-07-20T22:08:28.867Z,44.70
2018-07-20T22:10:57.585Z,45.20
2018-07-20T22:13:26.216Z,46.10
2018-07-20T22:15:54.936Z,46.80
2018-07-20T22:18:23.402Z,46.40
2018-07-20T22:20:51.996Z,46.90
2018-07-20T22:23:20.668Z,47.10
2018-07-20T22:25:49.121Z,47.40
2018-07-20T22:28:17.592Z,47.70
2018-07-20T22:30:46.048Z,47.80
2018-07-20T22:33:14.700Z,48.10
2018-07-20T22:35:43.237Z,48.40
2018-07-20T22:38:11.732Z,48.90
2018-07-20T22:40:40.294Z,49.00
2018-07-20T22:43:08.736Z,49.30
2018-07-20T22:48:05.924Z,56.00
2018-07-20T22:50:34.481Z,56.10
2018-07-20T22:53:03.276Z,56.10
2018-07-20T22:55:31.789Z,57.10
2018-07-20T22:58:00.260Z,58.20
2018-07-20T23:00:28.864Z,58.00
2018-07-20T23:02:57.399Z,58.00
2018-07-20T23:05:25.901Z,58.10
2018-07-20T23:07:54.421Z,58.20
2018-07-20T23:10:22.956Z,58.10
2018-07-20T23:12:51.397Z,57.90
2018-07-20T23:15:20.000Z,57.60
2018-07-20T23:17:48.550Z,57.90
2018-07-20T23:20:17.145Z,57.30
2018-07-20T23:22:45.972Z,57.20
2018-07-20T23:25:14.402Z,57.00
2018-07-20T23:27:43.071Z,57.10
2018-07-20T23:30:11.684Z,56.80
2018-07-20T23:32:40.377Z,56.10
2018-07-20T23:35:09.209Z,56.00
2018-07-20T23:37:37.995Z,56.10
2018-07-20T23:40:06.834Z,56.00
2018-07-20T23:42:35.302Z,56.00
2018-07-20T23:45:04.076Z,56.10
2018-07-20T23:47:32.530Z,56.20
2018-07-20T23:50:01.114Z,56.30
2018-07-20T23:52:29.573Z,56.60
2018-07-20T23:54:58.087Z,56.70
2018-07-20T23:57:26.705Z,57.00
2018-07-20T23:59:55.223Z,57.50
